Markovo, Russia
Current Conditions -  °F | °C
As of 12:00 PM on Tuesday 23 Dec 2014 (Local Time) from UHMA Reporting Station
Moderate Fog Moderate Fog  
Wind Chill: -39°   Ceiling: 8000
Heat Index: -22°   Visibility: 6mi
Dew Point: -24°   Wind: 7mph
Humidity: 91%   Direction: 350°N
Pressure: 30.09"   Gusts: NA
Location:  64.68°N, 170.42°E
Report Text: UHMA 230000Z 35003MPS 9999 VCFG BKN080 M30/M31 Q1019 NOSIG RMKQFE761/1014 880///60
Loading
Personal Weather Stations






























Interactive Weather Map New forecast layout! Learn more

10-Day Weather Forecast

Advertisements
Track Severe Weather on mobile